Time;durP1;ratioP1;P1;durP2;ratioP2;P2;SDS_P1;SDS_P2;PMS_P1;PMS_P2;Temp;Humidity;BMP_temperature;BMP_pressure;BME280_temperature;BME280_humidity;BME280_pressure;Samples;Min_cycle;Max_cycle;Signal;HPM_P1;HPM_P2
2023/04/29 00:00:45;;;;;;;3.70;1.90;;;;;;;12.78;48.67;101387.88;110482;1269;22094;-47
2023/04/29 00:03:12;;;;;;;4.00;1.80;;;;;;;12.75;47.90;101384.28;110549;1270;23071;-47
2023/04/29 00:05:40;;;;;;;3.80;2.00;;;;;;;12.73;48.02;101381.38;110534;1275;22181;-47
2023/04/29 00:08:07;;;;;;;3.30;1.30;;;;;;;12.70;47.89;101380.02;110540;1275;22174;-48
2023/04/29 00:10:35;;;;;;;2.90;1.80;;;;;;;12.68;48.39;101379.39;110501;1275;22330;-48
2023/04/29 00:13:02;;;;;;;3.60;1.80;;;;;;;12.65;48.32;101379.08;110478;1275;22342;-47
2023/04/29 00:15:29;;;;;;;2.50;2.00;;;;;;;12.62;48.19;101374.79;110497;1275;22368;-47
2023/04/29 00:17:56;;;;;;;3.70;1.50;;;;;;;12.61;48.18;101370.82;110508;1269;22329;-48
2023/04/29 00:20:23;;;;;;;5.00;1.80;;;;;;;12.58;48.11;101374.01;110529;1275;22898;-47
2023/04/29 00:22:50;;;;;;;2.60;1.70;;;;;;;12.56;48.34;101367.80;109814;1272;1002443;-47
2023/04/29 00:25:17;;;;;;;2.40;1.60;;;;;;;12.55;48.00;101367.13;110308;1272;22463;-47
2023/04/29 00:27:44;;;;;;;2.60;1.70;;;;;;;12.53;48.33;101365.41;110519;1273;22290;-48
2023/04/29 00:30:14;;;;;;;2.60;1.80;;;;;;;12.52;48.57;101364.73;110506;1267;23133;-48
2023/04/29 00:32:42;;;;;;;2.40;1.40;;;;;;;12.53;48.57;101365.92;110499;1272;22987;-48
2023/04/29 00:35:10;;;;;;;2.20;1.60;;;;;;;12.55;48.42;101366.59;110517;1270;22364;-48
2023/04/29 00:37:37;;;;;;;2.60;1.60;;;;;;;12.55;48.06;101362.23;110283;1270;22213;-48
2023/04/29 00:40:05;;;;;;;5.90;2.00;;;;;;;12.55;48.52;101361.02;110517;1270;22773;-48
2023/04/29 00:42:32;;;;;;;3.30;1.70;;;;;;;12.56;48.17;101360.66;110515;1271;22127;-48
2023/04/29 00:44:59;;;;;;;4.60;2.10;;;;;;;12.55;48.12;101353.02;110503;1275;22101;-47
2023/04/29 00:47:27;;;;;;;2.00;1.60;;;;;;;12.54;47.93;101358.09;110527;1275;22372;-48
2023/04/29 00:49:54;;;;;;;3.00;1.80;;;;;;;12.53;47.60;101356.89;110510;1269;22411;-48
2023/04/29 00:52:21;;;;;;;1.60;1.50;;;;;;;12.52;47.78;101357.42;110522;1270;22337;-47
2023/04/29 00:54:48;;;;;;;7.40;1.40;;;;;;;12.49;47.34;101353.83;109568;1269;1003202;-48
2023/04/29 00:57:15;;;;;;;1.80;1.60;;;;;;;12.49;47.54;101356.44;110505;1275;22407;-47
2023/04/29 00:59:44;;;;;;;3.80;1.60;;;;;;;12.49;47.92;101360.79;110296;1275;22378;-47
2023/04/29 01:02:11;;;;;;;3.00;1.30;;;;;;;12.47;48.15;101357.88;110284;1272;23048;-48
2023/04/29 01:04:38;;;;;;;3.10;1.70;;;;;;;12.44;48.14;101356.21;110509;1267;22956;-48
2023/04/29 01:07:14;;;;;;;3.00;1.20;;;;;;;12.42;48.63;101355.36;110283;1274;22377;-47
2023/04/29 01:10:03;;;;;;;2.60;1.70;;;;;;;12.40;48.94;101354.03;110259;1275;22199;-47
2023/04/29 01:13:06;;;;;;;2.90;1.60;;;;;;;12.39;48.81;101351.09;110259;1274;22175;-48
2023/04/29 01:15:45;;;;;;;2.00;1.60;;;;;;;12.35;48.09;101352.73;109766;1281;22383;-48
2023/04/29 01:18:18;;;;;;;2.10;1.70;;;;;;;12.34;48.21;101352.59;109951;1281;22862;-48
2023/04/29 01:20:45;;;;;;;2.90;1.50;;;;;;;12.33;47.96;101351.91;109880;1273;23267;-47
2023/04/29 01:23:12;;;;;;;2.30;1.50;;;;;;;12.31;47.73;101363.23;109985;1277;22273;-47
2023/04/29 01:25:40;;;;;;;1.90;1.40;;;;;;;12.30;47.84;101366.05;109967;1281;22169;-48
2023/04/29 01:28:32;;;;;;;2.50;1.40;;;;;;;12.28;47.84;101359.65;109915;1281;22166;-48
2023/04/29 01:31:05;;;;;;;4.00;2.10;;;;;;;12.26;47.74;101356.58;109953;1280;22349;-48
2023/04/29 01:33:41;;;;;;;2.40;1.50;;;;;;;12.25;48.00;101355.70;109966;1280;22388;-48
2023/04/29 01:36:35;;;;;;;4.50;2.00;;;;;;;12.24;48.28;101354.86;109933;1278;22161;-47
2023/04/29 01:39:07;;;;;;;2.40;1.80;;;;;;;12.21;48.49;101361.52;109881;1281;22306;-48
2023/04/29 01:41:34;;;;;;;;;;;;;;;12.19;48.53;101360.86;109887;1281;23422;-47
2023/04/29 01:44:14;;;;;;;3.70;1.60;;;;;;;12.18;48.64;101361.75;109957;1280;22185;-47
2023/04/29 01:46:42;;;;;;;3.60;1.90;;;;;;;12.15;48.22;101359.36;109898;1279;22195;-48
2023/04/29 01:49:09;;;;;;;2.70;1.90;;;;;;;12.14;48.21;101359.90;110023;1275;22341;-48
2023/04/29 01:51:37;;;;;;;1.70;1.40;;;;;;;12.13;48.56;101365.16;110297;1275;22272;-47
2023/04/29 01:54:04;;;;;;;2.50;1.60;;;;;;;12.11;48.13;101364.66;110412;1271;22593;-47
2023/04/29 01:56:31;;;;;;;2.10;1.70;;;;;;;12.12;48.29;101370.22;110288;1269;22433;-47
2023/04/29 01:59:12;;;;;;;3.30;2.00;;;;;;;12.11;48.31;101366.91;109498;1268;1002617;-48
2023/04/29 02:02:02;;;;;;;1.80;1.60;;;;;;;12.11;48.37;101367.29;110263;1275;23008;-48
2023/04/29 02:04:32;;;;;;;2.60;1.70;;;;;;;12.10;48.34;101366.43;110281;1268;22432;-48
2023/04/29 02:07:00;;;;;;;2.50;1.60;;;;;;;12.05;47.89;101367.39;110278;1269;22284;-48
2023/04/29 02:09:27;;;;;;;9.40;2.40;;;;;;;11.99;48.18;101368.36;110568;1271;22355;-48
2023/04/29 02:11:58;;;;;;;2.70;1.70;;;;;;;11.96;48.35;101367.20;110437;1270;22286;-48
2023/04/29 02:14:29;;;;;;;2.40;1.40;;;;;;;11.94;48.32;101369.15;110477;1271;22314;-48
2023/04/29 02:16:56;;;;;;;2.40;1.70;;;;;;;11.93;48.39;101365.52;110430;1269;22301;-47
2023/04/29 02:19:23;;;;;;;2.80;1.50;;;;;;;11.93;48.55;101374.03;110469;1273;22353;-48
2023/04/29 02:21:51;;;;;;;1.90;1.40;;;;;;;11.91;48.20;101371.82;110574;1275;22249;-47
2023/04/29 02:24:18;;;;;;;3.60;1.90;;;;;;;11.89;48.51;101372.54;110254;1275;22120;-48
2023/04/29 02:26:46;;;;;;;4.00;1.40;;;;;;;11.88;48.57;101369.43;109673;1269;1002255;-48
2023/04/29 02:29:13;;;;;;;3.50;1.80;;;;;;;11.88;48.78;101374.81;110314;1269;22109;-48
2023/04/29 02:31:42;;;;;;;2.30;1.40;;;;;;;11.87;48.89;101377.45;110462;1269;22437;-48
2023/04/29 02:34:09;;;;;;;3.60;2.00;;;;;;;11.86;48.77;101376.94;110495;1275;22210;-48
2023/04/29 02:36:36;;;;;;;1.80;1.40;;;;;;;11.86;49.14;101375.73;110489;1273;22383;-48
2023/04/29 02:39:04;;;;;;;4.00;1.90;;;;;;;11.85;48.85;101376.25;110476;1273;22322;-48
2023/04/29 02:41:31;;;;;;;3.60;1.90;;;;;;;11.85;48.33;101375.77;110557;1268;22303;-48
2023/04/29 02:43:59;;;;;;;3.30;1.80;;;;;;;11.84;47.92;101384.29;109805;1275;1002427;-48
2023/04/29 02:46:26;;;;;;;2.50;1.50;;;;;;;11.81;48.05;101382.60;110503;1270;22367;-48
2023/04/29 02:48:53;;;;;;;3.70;2.00;;;;;;;11.80;48.21;101387.30;109586;1271;1002314;-47
2023/04/29 02:51:20;;;;;;;3.20;2.00;;;;;;;11.81;48.32;101389.03;110409;1275;22393;-48
2023/04/29 02:53:47;;;;;;;2.90;1.90;;;;;;;11.81;47.85;101390.25;110389;1275;22571;-48
2023/04/29 02:56:14;;;;;;;3.50;1.80;;;;;;;11.80;48.07;101390.95;110468;1275;22962;-47
2023/04/29 02:58:41;;;;;;;2.30;1.80;;;;;;;11.80;48.32;101394.61;110475;1275;22132;-48
2023/04/29 03:01:08;;;;;;;2.80;1.40;;;;;;;11.80;48.13;101390.27;110505;1272;22778;-48
2023/04/29 03:03:35;;;;;;;3.70;1.80;;;;;;;11.78;47.49;101390.80;110537;1275;22301;-48
2023/04/29 03:06:03;;;;;;;2.40;1.60;;;;;;;11.75;47.69;101395.90;110428;1274;23114;-48
2023/04/29 03:08:30;;;;;;;2.80;1.50;;;;;;;11.72;47.86;101391.95;110511;1270;22104;-48
2023/04/29 03:10:57;;;;;;;3.80;2.00;;;;;;;11.71;47.75;101394.75;110306;1275;22198;-48
2023/04/29 03:13:24;;;;;;;3.80;1.90;;;;;;;11.69;48.09;101392.34;110418;1272;22440;-48
2023/04/29 03:15:51;;;;;;;2.20;1.50;;;;;;;11.68;48.07;101392.02;110252;1273;22401;-47
2023/04/29 03:18:18;;;;;;;3.50;1.70;;;;;;;11.68;47.48;101394.98;109729;1272;1002302;-48
2023/04/29 03:20:46;;;;;;;4.10;1.60;;;;;;;11.66;47.53;101396.02;110483;1272;22155;-47
2023/04/29 03:23:14;;;;;;;3.20;1.90;;;;;;;11.65;47.63;101396.73;109696;1270;1002452;-48
2023/04/29 03:25:41;;;;;;;4.00;1.90;;;;;;;11.64;47.83;101391.70;110310;1274;22997;-47
2023/04/29 03:28:08;;;;;;;3.00;2.00;;;;;;;11.66;48.15;101397.42;110274;1275;22582;-48
2023/04/29 03:30:36;;;;;;;4.80;1.50;;;;;;;11.66;48.46;101397.23;110333;1273;22139;-48
2023/04/29 03:33:03;;;;;;;3.60;1.90;;;;;;;11.66;48.36;101397.77;110519;1275;23313;-48
2023/04/29 03:35:30;;;;;;;3.60;1.80;;;;;;;11.66;48.33;101401.77;110304;1276;22179;-48
2023/04/29 03:38:09;;;;;;;2.80;1.70;;;;;;;11.67;48.28;101404.02;110497;1270;22399;-48
2023/04/29 03:40:37;;;;;;;2.30;1.70;;;;;;;11.69;48.35;101405.73;110462;1270;23405;-48
2023/04/29 03:43:04;;;;;;;2.00;1.30;;;;;;;11.70;48.47;101409.70;109482;1272;1002236;-48
2023/04/29 03:45:31;;;;;;;2.40;1.60;;;;;;;11.70;48.10;101410.92;110247;1270;22340;-48
2023/04/29 03:47:58;;;;;;;2.60;1.60;;;;;;;11.70;48.17;101412.84;110135;1278;22717;-48
2023/04/29 03:50:25;;;;;;;4.20;1.50;;;;;;;11.72;47.87;101408.97;110316;1275;22168;-48
2023/04/29 03:52:52;;;;;;;2.30;1.60;;;;;;;11.74;48.00;101407.05;110190;1273;22414;-48
2023/04/29 03:55:19;;;;;;;5.20;2.60;;;;;;;11.75;48.13;101408.05;110099;1278;23345;-48
2023/04/29 03:57:47;;;;;;;2.50;1.60;;;;;;;11.78;48.20;101410.11;110253;1275;22393;-48
2023/04/29 04:00:16;;;;;;;2.70;1.70;;;;;;;11.76;48.06;101408.40;110214;1272;22404;-47
2023/04/29 04:02:44;;;;;;;3.30;1.70;;;;;;;11.76;48.25;101402.84;110135;1278;22514;-48
2023/04/29 04:05:12;;;;;;;3.10;1.70;;;;;;;11.75;48.60;101401.28;110034;1278;22470;-50
2023/04/29 04:07:41;;;;;;;5.10;1.50;;;;;;;11.78;48.54;101401.41;110070;1270;22375;-48
2023/04/29 04:10:34;;;;;;;2.60;1.70;;;;;;;11.79;48.50;101401.21;110112;1269;22437;-48
2023/04/29 04:13:06;;;;;;;3.10;1.60;;;;;;;11.80;48.22;101396.16;110167;1269;22788;-48
2023/04/29 04:15:33;;;;;;;3.80;2.00;;;;;;;11.81;48.44;101402.05;110575;1275;22361;-48
2023/04/29 04:18:00;;;;;;;3.70;1.80;;;;;;;11.82;48.97;101403.27;110415;1269;22129;-48
2023/04/29 04:20:27;;;;;;;3.50;1.90;;;;;;;11.84;48.98;101407.23;110303;1272;22446;-48
2023/04/29 04:22:55;;;;;;;2.80;1.70;;;;;;;11.85;48.82;101404.79;110340;1275;22121;-48
2023/04/29 04:25:24;;;;;;;2.30;1.80;;;;;;;11.86;48.46;101408.23;110403;1275;22333;-49
2023/04/29 04:27:53;;;;;;;3.30;1.70;;;;;;;11.88;48.56;101407.69;110448;1268;23059;-48
2023/04/29 04:30:41;;;;;;;2.90;1.60;;;;;;;11.89;48.36;101413.73;110473;1270;22205;-48
2023/04/29 04:33:09;;;;;;;2.90;1.60;;;;;;;11.90;47.81;101408.17;109580;1275;1002462;-48
2023/04/29 04:35:37;;;;;;;3.00;1.50;;;;;;;11.92;47.99;101410.39;110352;1270;22331;-48
2023/04/29 04:38:04;;;;;;;4.30;1.60;;;;;;;11.94;47.93;101407.23;109559;1275;1003217;-48
2023/04/29 04:40:31;;;;;;;2.20;1.50;;;;;;;11.96;47.71;101410.32;110482;1270;22350;-48
2023/04/29 04:43:09;;;;;;;3.40;1.60;;;;;;;12.02;48.36;101409.51;110365;1270;23137;-47
2023/04/29 04:45:38;;;;;;;2.20;1.50;;;;;;;12.07;47.74;101409.44;109584;1267;1002988;-48
2023/04/29 04:48:06;;;;;;;2.30;1.90;;;;;;;12.09;47.97;101411.30;110338;1269;22301;-47
2023/04/29 04:50:35;;;;;;;2.80;1.60;;;;;;;12.14;48.30;101405.83;110386;1275;23020;-48
2023/04/29 04:53:02;;;;;;;2.80;1.60;;;;;;;12.21;48.34;101412.14;110285;1275;22387;-48
2023/04/29 04:55:49;;;;;;;3.70;1.50;;;;;;;12.31;47.52;101404.48;110446;1270;22395;-48
2023/04/29 04:58:16;;;;;;;1.70;1.50;;;;;;;12.37;47.71;101404.70;110369;1270;23113;-48
2023/04/29 05:00:44;;;;;;;2.80;1.80;;;;;;;12.46;47.65;101406.79;110366;1275;22394;-48
2023/04/29 05:03:12;;;;;;;3.20;1.60;;;;;;;12.55;47.59;101409.06;110440;1275;22400;-48
2023/04/29 05:05:39;;;;;;;1.80;1.30;;;;;;;12.62;47.59;101407.52;109692;1270;1002404;-47
2023/04/29 05:08:06;;;;;;;3.40;1.50;;;;;;;12.70;47.52;101406.84;110364;1270;22654;-48
2023/04/29 05:10:38;;;;;;;2.60;1.70;;;;;;;12.74;47.06;101406.95;110351;1270;22187;-47
2023/04/29 05:13:05;;;;;;;3.00;1.80;;;;;;;12.76;47.33;101406.02;110357;1276;22341;-48
2023/04/29 05:15:33;;;;;;;2.20;1.70;;;;;;;12.80;47.04;101408.55;110452;1270;22155;-48
2023/04/29 05:18:00;;;;;;;3.60;1.60;;;;;;;12.83;46.76;101401.00;110286;1275;22155;-48
2023/04/29 05:20:29;;;;;;;2.70;1.60;;;;;;;12.85;47.33;101401.64;110412;1275;22261;-48
2023/04/29 05:22:56;;;;;;;1.90;1.50;;;;;;;12.87;47.02;101401.79;110444;1270;22397;-48
2023/04/29 05:25:23;;;;;;;2.00;1.40;;;;;;;12.89;47.14;101404.52;110260;1275;23041;-47
2023/04/29 05:27:52;;;;;;;2.10;1.80;;;;;;;12.92;46.84;101395.76;109493;1272;1002497;-48
2023/04/29 05:30:19;;;;;;;3.70;1.70;;;;;;;12.97;46.77;101399.14;109497;1273;1002511;-48
2023/04/29 05:32:47;;;;;;;4.30;1.80;;;;;;;13.11;47.32;101397.64;110231;1270;22215;-48
2023/04/29 05:35:16;;;;;;;3.90;2.00;;;;;;;13.36;46.81;101400.39;110118;1277;22374;-48
2023/04/29 05:37:43;;;;;;;3.50;1.70;;;;;;;13.63;46.40;101397.31;109517;1273;1002860;-48
2023/04/29 05:40:23;;;;;;;3.10;1.40;;;;;;;13.95;45.64;101391.80;110044;1278;22161;-48
2023/04/29 05:42:50;;;;;;;1.60;1.40;;;;;;;14.22;45.09;101390.58;110137;1274;22423;-48
2023/04/29 05:45:17;;;;;;;3.60;1.60;;;;;;;14.45;44.68;101391.01;110280;1276;22801;-48
2023/04/29 05:47:44;;;;;;;2.80;1.60;;;;;;;14.68;44.23;101390.70;110173;1273;22263;-48
2023/04/29 05:50:12;;;;;;;2.90;1.60;;;;;;;14.91;43.68;101390.91;109559;1270;1002463;-48
2023/04/29 05:52:39;;;;;;;3.90;1.60;;;;;;;15.15;43.71;101393.86;110064;1276;22313;-48
2023/04/29 05:55:06;;;;;;;2.50;1.50;;;;;;;15.40;42.86;101389.77;110289;1270;22182;-48
2023/04/29 05:57:33;;;;;;;1.90;1.40;;;;;;;15.59;42.32;101395.10;110447;1268;22305;-49
2023/04/29 06:00:00;;;;;;;2.10;1.60;;;;;;;15.80;42.61;101394.58;110369;1270;22449;-48
2023/04/29 06:02:27;;;;;;;1.90;1.10;;;;;;;16.20;41.56;101389.71;110403;1270;22346;-48
2023/04/29 06:04:54;;;;;;;2.90;1.40;;;;;;;16.68;40.67;101391.19;110379;1270;22299;-48
2023/04/29 06:07:52;;;;;;;3.50;1.50;;;;;;;17.14;39.17;101388.01;110524;1268;22175;-48
2023/04/29 06:10:30;;;;;;;2.70;1.70;;;;;;;17.52;38.71;101390.55;110271;1275;22598;-49
2023/04/29 06:12:58;;;;;;;4.10;1.50;;;;;;;17.71;38.12;101386.07;110331;1270;22332;-47
2023/04/29 06:15:25;;;;;;;1.80;1.20;;;;;;;17.80;37.21;101386.73;110020;1275;22260;-47
2023/04/29 06:17:52;;;;;;;2.20;1.30;;;;;;;17.90;36.91;101388.46;110433;1269;22128;-47
2023/04/29 06:20:19;;;;;;;2.00;1.30;;;;;;;18.03;37.08;101392.84;110408;1270;22273;-47
2023/04/29 06:22:46;;;;;;;3.10;1.20;;;;;;;18.18;37.14;101390.96;110408;1270;22437;-47
2023/04/29 06:25:14;;;;;;;5.00;1.20;;;;;;;18.24;36.71;101395.44;110397;1271;23245;-46
2023/04/29 06:27:47;;;;;;;1.50;1.10;;;;;;;18.16;36.52;101388.41;110361;1270;22119;-46
2023/04/29 06:30:15;;;;;;;3.40;1.50;;;;;;;18.01;35.75;101386.21;110511;1269;22475;-46
2023/04/29 06:32:43;;;;;;;1.90;1.10;;;;;;;17.72;35.56;101389.56;110436;1269;22436;-46
2023/04/29 06:35:10;;;;;;;1.70;1.10;;;;;;;17.44;35.78;101393.11;110365;1275;22474;-47
2023/04/29 06:38:01;;;;;;;2.50;1.50;;;;;;;17.23;36.53;101396.93;110206;1268;22372;-46
2023/04/29 06:40:28;;;;;;;2.00;1.20;;;;;;;17.07;36.65;101400.71;110483;1270;22275;-47
2023/04/29 06:43:10;;;;;;;1.70;1.30;;;;;;;16.86;36.70;101400.46;110292;1270;23144;-46
2023/04/29 06:46:10;;;;;;;2.80;1.30;;;;;;;16.62;36.64;101395.95;110174;1275;22354;-46
2023/04/29 06:48:48;;;;;;;1.90;1.10;;;;;;;16.43;37.40;101392.59;110413;1271;22147;-46
2023/04/29 06:51:15;;;;;;;1.90;1.10;;;;;;;16.27;37.72;101396.48;110346;1272;23162;-46
2023/04/29 06:53:42;;;;;;;4.00;1.10;;;;;;;16.15;38.06;101387.95;110032;1269;22229;-46
2023/04/29 06:56:10;;;;;;;2.00;1.00;;;;;;;16.07;37.98;101398.73;110234;1275;22256;-46
2023/04/29 06:58:38;;;;;;;2.90;1.30;;;;;;;16.03;38.33;101389.63;110490;1273;23103;-46
2023/04/29 07:01:07;;;;;;;1.50;1.20;;;;;;;16.02;38.18;101391.57;110484;1271;22198;-46
2023/04/29 07:03:34;;;;;;;2.20;1.00;;;;;;;16.07;38.80;101390.35;110538;1275;22318;-46
2023/04/29 07:06:01;;;;;;;1.30;1.20;;;;;;;16.16;38.84;101386.20;110409;1269;23061;-47
2023/04/29 07:08:29;;;;;;;1.60;1.30;;;;;;;16.21;38.22;101379.16;110119;1275;23089;-47
2023/04/29 07:10:57;;;;;;;1.40;1.10;;;;;;;16.26;38.28;101383.02;110505;1275;23157;-47
2023/04/29 07:13:24;;;;;;;3.30;1.20;;;;;;;16.31;37.68;101385.14;110535;1271;22302;-46
2023/04/29 07:15:51;;;;;;;3.70;2.10;;;;;;;16.36;37.00;101382.34;109679;1268;1002376;-46
2023/04/29 07:18:18;;;;;;;1.50;0.90;;;;;;;16.43;36.98;101385.75;110109;1278;22302;-49
2023/04/29 07:20:46;;;;;;;2.00;0.90;;;;;;;16.52;37.90;101384.41;110144;1278;22335;-49
2023/04/29 07:23:14;;;;;;;1.00;0.90;;;;;;;16.64;38.36;101381.69;110039;1273;22384;-49
2023/04/29 07:25:41;;;;;;;3.60;1.20;;;;;;;16.70;37.31;101377.98;110014;1273;22979;-46
2023/04/29 07:28:08;;;;;;;6.90;0.90;;;;;;;16.71;37.15;101376.51;109965;1276;22149;-49
2023/04/29 07:30:35;;;;;;;4.50;1.10;;;;;;;16.68;38.13;101385.58;110038;1273;22179;-48
2023/04/29 07:33:03;;;;;;;2.80;1.30;;;;;;;16.65;37.88;101373.27;109931;1278;22159;-48
2023/04/29 07:35:30;;;;;;;2.70;0.60;;;;;;;16.64;37.29;101376.29;110064;1272;23135;-46
2023/04/29 07:37:57;;;;;;;1.20;0.90;;;;;;;16.63;37.16;101371.58;109277;1273;1002931;-48
2023/04/29 07:40:25;;;;;;;2.40;1.00;;;;;;;16.61;36.42;101370.23;109888;1272;22187;-48
2023/04/29 07:42:55;;;;;;;3.40;1.00;;;;;;;16.54;36.28;101364.19;109870;1274;22426;-48
2023/04/29 07:45:22;;;;;;;1.20;0.80;;;;;;;16.49;36.42;101367.52;109870;1273;23025;-48
2023/04/29 07:47:49;;;;;;;2.00;1.00;;;;;;;16.52;37.02;101369.00;109919;1275;22201;-48
2023/04/29 07:50:16;;;;;;;1.90;1.10;;;;;;;16.61;36.92;101367.44;109926;1274;22228;-48
2023/04/29 07:52:43;;;;;;;2.30;1.00;;;;;;;16.67;36.56;101363.52;109251;1273;1002552;-48
2023/04/29 07:55:10;;;;;;;2.20;1.50;;;;;;;16.69;36.23;101361.73;109927;1277;23248;-48
2023/04/29 07:57:37;;;;;;;3.20;0.90;;;;;;;16.66;35.84;101360.08;109989;1273;22799;-48
2023/04/29 08:00:06;;;;;;;3.60;1.10;;;;;;;16.62;35.85;101365.83;109968;1273;22338;-48
2023/04/29 08:02:41;;;;;;;3.60;1.10;;;;;;;16.59;36.27;101369.09;109900;1281;22352;-47
2023/04/29 08:05:10;;;;;;;3.20;1.00;;;;;;;16.55;36.42;101364.33;109800;1279;22727;-47
2023/04/29 08:07:37;;;;;;;4.40;1.10;;;;;;;16.51;36.13;101369.55;109994;1273;22160;-48
2023/04/29 08:10:05;;;;;;;2.90;1.20;;;;;;;16.48;36.13;101366.85;109973;1273;22522;-48
2023/04/29 08:12:35;;;;;;;1.90;1.10;;;;;;;16.46;37.00;101370.08;109981;1273;22441;-47
2023/04/29 08:15:03;;;;;;;2.40;0.80;;;;;;;16.48;37.14;101360.38;110286;1271;22411;-48
2023/04/29 08:17:32;;;;;;;3.50;1.20;;;;;;;16.47;37.22;101361.78;110094;1273;22304;-48
2023/04/29 08:19:59;;;;;;;2.90;1.10;;;;;;;16.49;37.68;101359.48;110023;1274;22312;-48
2023/04/29 08:22:26;;;;;;;2.60;0.80;;;;;;;16.49;37.36;101359.27;110185;1271;22236;-47
2023/04/29 08:24:53;;;;;;;3.70;1.30;;;;;;;16.49;37.02;101362.59;110098;1278;23298;-48
2023/04/29 08:27:21;;;;;;;4.30;1.30;;;;;;;16.47;38.16;101365.48;110137;1277;22169;-48
2023/04/29 08:29:48;;;;;;;2.00;1.00;;;;;;;16.44;38.62;101365.40;110193;1270;22428;-48
2023/04/29 08:32:15;;;;;;;3.00;0.90;;;;;;;16.41;38.23;101360.78;110072;1277;23198;-48
2023/04/29 08:34:43;;;;;;;2.10;0.90;;;;;;;16.38;37.85;101360.20;110296;1270;22203;-48
2023/04/29 08:37:10;;;;;;;2.10;1.00;;;;;;;16.35;37.28;101357.33;110178;1271;22373;-48
2023/04/29 08:39:37;;;;;;;2.00;1.00;;;;;;;16.34;38.27;101354.74;110248;1270;22136;-48
2023/04/29 08:42:10;;;;;;;2.80;1.00;;;;;;;16.34;38.60;101351.61;110158;1271;22226;-48
2023/04/29 08:44:39;;;;;;;1.30;0.90;;;;;;;16.36;38.54;101349.95;109415;1271;1002366;-49
2023/04/29 08:47:06;;;;;;;3.60;0.80;;;;;;;16.41;38.07;101346.98;110118;1273;22192;-48
2023/04/29 08:49:36;;;;;;;2.50;0.90;;;;;;;16.43;38.22;101352.13;110078;1277;22231;-48
2023/04/29 08:52:04;;;;;;;3.20;1.10;;;;;;;16.47;37.90;101346.39;110032;1270;23301;-48
2023/04/29 08:54:31;;;;;;;1.20;0.90;;;;;;;16.48;37.55;101348.09;110129;1269;23234;-48
2023/04/29 08:56:59;;;;;;;1.40;0.80;;;;;;;16.50;37.64;101340.34;109964;1267;23186;-47
2023/04/29 08:59:26;;;;;;;3.40;1.00;;;;;;;16.52;37.82;101339.58;109489;1272;1002227;-48
2023/04/29 09:01:53;;;;;;;3.60;1.00;;;;;;;16.56;37.94;101333.30;110390;1268;22367;-48
2023/04/29 09:04:29;;;;;;;4.50;2.00;;;;;;;16.61;37.89;101335.39;110394;1262;22263;-48
2023/04/29 09:06:57;;;;;;;2.10;1.00;;;;;;;16.65;37.95;101332.43;110387;1269;23552;-48
2023/04/29 09:09:24;;;;;;;3.30;0.80;;;;;;;16.67;37.69;101324.29;110302;1265;22208;-48
2023/04/29 09:11:52;;;;;;;4.00;0.90;;;;;;;16.71;37.62;101325.02;110337;1262;22870;-48
2023/04/29 09:14:19;;;;;;;3.90;1.10;;;;;;;16.78;38.61;101318.95;110368;1262;22284;-48
2023/04/29 09:16:46;;;;;;;2.30;1.20;;;;;;;16.86;39.44;101321.27;110388;1270;23188;-48
2023/04/29 09:19:35;;;;;;;3.30;1.10;;;;;;;16.93;39.01;101310.65;110409;1268;22278;-47
2023/04/29 09:22:03;;;;;;;5.30;1.50;;;;;;;16.98;38.66;101312.40;110384;1268;22468;-47
2023/04/29 09:24:30;;;;;;;3.10;1.10;;;;;;;17.04;39.26;101307.60;109570;1270;1002463;-48
2023/04/29 09:26:58;;;;;;;3.40;1.10;;;;;;;17.14;38.20;101307.01;110419;1270;22197;-48
2023/04/29 09:33:08;;;;;;;2.50;1.10;;;;;;;17.44;37.81;101298.43;103676;1305;544906;-46
2023/04/29 09:35:35;;;;;;;3.80;1.20;;;;;;;17.55;37.17;101292.89;106402;1265;24325;-48
2023/04/29 09:38:13;;;;;;;4.80;1.10;;;;;;;17.62;36.42;101296.08;106025;1283;22587;-47
2023/04/29 09:40:41;;;;;;;1.70;1.00;;;;;;;17.65;36.54;101292.49;106387;1283;22543;-47
2023/04/29 09:43:25;;;;;;;2.90;1.10;;;;;;;17.72;36.96;101290.42;106568;1274;22559;-48
2023/04/29 09:45:52;;;;;;;3.40;1.10;;;;;;;17.81;37.22;101297.04;106018;1272;415001;-47
2023/04/29 09:48:19;;;;;;;2.10;1.10;;;;;;;17.89;36.52;101292.67;106614;1280;22537;-47
2023/04/29 09:51:00;;;;;;;6.50;1.30;;;;;;;17.90;36.27;101293.30;106609;1274;22611;-47
2023/04/29 09:53:28;;;;;;;4.10;1.30;;;;;;;17.82;36.60;101282.60;106216;1272;24410;-47
2023/04/29 09:56:02;;;;;;;8.40;1.30;;;;;;;17.74;36.59;101274.89;106444;1279;22580;-47
2023/04/29 09:58:35;;;;;;;3.80;1.20;;;;;;;17.65;36.78;101281.25;106257;1281;24398;-47
2023/04/29 10:01:03;;;;;;;4.00;1.40;;;;;;;17.59;36.99;101283.05;106186;1272;22573;-47
2023/04/29 10:03:33;;;;;;;2.10;1.20;;;;;;;17.59;36.92;101277.83;106366;1264;22871;-47
2023/04/29 10:06:01;;;;;;;4.80;1.30;;;;;;;17.60;37.47;101274.80;106261;1279;25345;-47
2023/04/29 10:08:29;;;;;;;3.90;1.50;;;;;;;17.59;38.31;101277.64;106115;1281;22528;-46
2023/04/29 10:10:58;;;;;;;2.80;1.30;;;;;;;17.55;37.10;101276.04;106285;1278;25488;-47
2023/04/29 10:13:27;;;;;;;4.10;1.50;;;;;;;17.56;36.42;101286.17;106036;1266;24275;-47
2023/04/29 10:16:03;;;;;;;4.60;2.00;;;;;;;17.60;37.87;101286.73;106632;1274;22562;-48
2023/04/29 10:18:36;;;;;;;7.50;1.40;;;;;;;17.62;38.60;101287.33;106635;1273;22546;-48
2023/04/29 10:21:08;;;;;;;4.50;1.20;;;;;;;17.62;38.12;101284.36;106631;1268;22555;-47
2023/04/29 10:23:35;;;;;;;4.40;1.40;;;;;;;17.60;37.08;101286.89;106780;1267;22536;-48
2023/04/29 10:26:03;;;;;;;5.80;1.20;;;;;;;17.61;36.62;101289.99;106845;1268;24254;-47
2023/04/29 10:28:31;;;;;;;3.70;1.10;;;;;;;17.64;36.66;101302.85;106688;1276;22536;-47
2023/04/29 10:31:01;;;;;;;5.00;1.10;;;;;;;17.66;36.00;101302.44;107394;1259;22606;-47
2023/04/29 10:33:30;;;;;;;6.50;1.30;;;;;;;17.68;35.86;101310.08;107165;1265;24221;-48
2023/04/29 10:35:57;;;;;;;6.10;1.00;;;;;;;17.71;36.09;101312.39;106968;1270;24221;-48
2023/04/29 10:38:28;;;;;;;2.90;1.30;;;;;;;17.71;35.55;101313.09;106577;1268;22533;-47
2023/04/29 10:40:55;;;;;;;4.20;1.30;;;;;;;17.69;36.00;101312.13;106721;1269;24268;-47
2023/04/29 10:43:23;;;;;;;3.70;1.10;;;;;;;17.66;36.04;101310.48;106726;1274;22533;-47
2023/04/29 10:45:50;;;;;;;1.60;1.00;;;;;;;17.62;35.92;101319.42;106800;1263;26656;-47
2023/04/29 10:48:20;;;;;;;6.80;1.00;;;;;;;17.57;36.30;101324.76;106798;1269;22901;-47
2023/04/29 10:50:47;;;;;;;4.20;1.20;;;;;;;17.51;36.42;101328.68;106798;1263;22641;-47
2023/04/29 10:53:18;;;;;;;5.00;1.00;;;;;;;17.49;36.67;101329.11;107160;1265;25443;-47
2023/04/29 10:55:46;;;;;;;9.20;1.50;;;;;;;17.47;36.71;101337.23;106946;1265;22578;-47
2023/04/29 10:58:33;;;;;;;2.80;1.30;;;;;;;17.45;36.64;101332.94;106444;1275;24244;-47
2023/04/29 11:05:09;;;;;;;4.60;1.20;;;;;;;17.34;36.93;101333.92;103838;1293;1003589;-46
2023/04/29 11:07:37;;;;;;;4.10;1.00;;;;;;;17.29;37.30;101337.07;105898;1275;22551;-48
2023/04/29 11:10:05;;;;;;;4.50;1.10;;;;;;;17.29;37.23;101336.55;106531;1276;22544;-47
2023/04/29 11:12:33;;;;;;;4.10;1.10;;;;;;;17.30;37.48;101338.08;106139;1275;23885;-47
2023/04/29 11:15:03;;;;;;;4.00;0.90;;;;;;;17.32;37.17;101338.72;106322;1280;25342;-48
2023/04/29 11:17:37;;;;;;;4.50;1.20;;;;;;;17.30;36.77;101335.30;106482;1275;223850;-48
2023/04/29 11:20:10;;;;;;;5.90;1.50;;;;;;;17.25;37.27;101334.47;107176;1263;24277;-48
2023/04/29 11:22:37;;;;;;;5.20;1.10;;;;;;;17.20;37.50;101328.69;106964;1263;25237;-48
2023/04/29 11:25:05;;;;;;;3.20;1.10;;;;;;;17.16;37.26;101325.16;106630;1269;24348;-48
2023/04/29 11:27:33;;;;;;;7.40;1.50;;;;;;;17.17;37.25;101321.96;106739;1270;22734;-49
2023/04/29 11:30:03;;;;;;;7.30;1.30;;;;;;;17.20;37.85;101320.44;106843;1272;26619;-49
2023/04/29 11:32:36;;;;;;;11.40;1.50;;;;;;;17.24;38.12;101319.40;106633;1272;26612;-48
2023/04/29 11:35:11;;;;;;;7.40;1.70;;;;;;;17.26;38.02;101313.71;106876;1264;25367;-48